sensor_id;sensor_type;location;lat;lon;timestamp;P1;durP1;ratioP1;P2;durP2;ratioP2
41657;SDS011;27347;57.132;-2.084;2022-09-01T00:01:14;6.40;;;3.17;;
41657;SDS011;27347;57.132;-2.084;2022-09-01T00:03:45;6.35;;;3.67;;
41657;SDS011;27347;57.132;-2.084;2022-09-01T00:06:12;5.95;;;3.53;;
41657;SDS011;27347;57.132;-2.084;2022-09-01T00:08:39;9.90;;;4.55;;
41657;SDS011;27347;57.132;-2.084;2022-09-01T00:11:04;4.28;;;3.13;;
41657;SDS011;27347;57.132;-2.084;2022-09-01T00:13:29;5.47;;;3.35;;
41657;SDS011;27347;57.132;-2.084;2022-09-01T00:15:57;5.38;;;2.88;;
41657;SDS011;27347;57.132;-2.084;2022-09-01T00:18:24;5.05;;;3.00;;
41657;SDS011;27347;57.132;-2.084;2022-09-01T00:20:49;8.02;;;2.88;;
41657;SDS011;27347;57.132;-2.084;2022-09-01T00:23:15;4.32;;;3.00;;
41657;SDS011;27347;57.132;-2.084;2022-09-01T00:25:40;5.97;;;2.67;;
41657;SDS011;27347;57.132;-2.084;2022-09-01T00:28:05;6.03;;;3.22;;
41657;SDS011;27347;57.132;-2.084;2022-09-01T00:30:31;3.38;;;2.72;;
41657;SDS011;27347;57.132;-2.084;2022-09-01T00:32:56;5.25;;;2.95;;
41657;SDS011;27347;57.132;-2.084;2022-09-01T00:35:22;5.43;;;2.75;;
41657;SDS011;27347;57.132;-2.084;2022-09-01T00:37:47;4.13;;;2.92;;
41657;SDS011;27347;57.132;-2.084;2022-09-01T00:40:13;4.68;;;2.92;;
41657;SDS011;27347;57.132;-2.084;2022-09-01T00:42:40;5.63;;;3.58;;
41657;SDS011;27347;57.132;-2.084;2022-09-01T00:45:06;4.57;;;3.00;;
41657;SDS011;27347;57.132;-2.084;2022-09-01T00:47:35;4.25;;;2.95;;
41657;SDS011;27347;57.132;-2.084;2022-09-01T00:50:03;4.80;;;3.08;;
41657;SDS011;27347;57.132;-2.084;2022-09-01T00:52:30;7.22;;;3.00;;
41657;SDS011;27347;57.132;-2.084;2022-09-01T00:54:59;5.05;;;2.70;;
41657;SDS011;27347;57.132;-2.084;2022-09-01T00:57:28;5.18;;;2.65;;
41657;SDS011;27347;57.132;-2.084;2022-09-01T00:59:55;3.13;;;2.53;;
41657;SDS011;27347;57.132;-2.084;2022-09-01T01:02:25;3.45;;;2.50;;
41657;SDS011;27347;57.132;-2.084;2022-09-01T01:04:51;5.53;;;3.05;;
41657;SDS011;27347;57.132;-2.084;2022-09-01T01:07:16;4.10;;;2.10;;
41657;SDS011;27347;57.132;-2.084;2022-09-01T01:09:44;3.58;;;2.20;;
41657;SDS011;27347;57.132;-2.084;2022-09-01T01:12:10;2.88;;;1.92;;
41657;SDS011;27347;57.132;-2.084;2022-09-01T01:14:37;3.03;;;2.10;;
41657;SDS011;27347;57.132;-2.084;2022-09-01T01:17:04;4.30;;;2.45;;
41657;SDS011;27347;57.132;-2.084;2022-09-01T01:22:27;3.15;;;2.45;;
41657;SDS011;27347;57.132;-2.084;2022-09-01T01:25:27;5.15;;;2.30;;
41657;SDS011;27347;57.132;-2.084;2022-09-01T01:30:38;4.25;;;3.00;;
41657;SDS011;27347;57.132;-2.084;2022-09-01T01:33:05;3.22;;;2.22;;
41657;SDS011;27347;57.132;-2.084;2022-09-01T01:35:32;4.72;;;2.47;;
41657;SDS011;27347;57.132;-2.084;2022-09-01T01:37:58;4.78;;;2.30;;
41657;SDS011;27347;57.132;-2.084;2022-09-01T01:40:25;3.40;;;2.40;;
41657;SDS011;27347;57.132;-2.084;2022-09-01T01:42:51;5.88;;;2.95;;
41657;SDS011;27347;57.132;-2.084;2022-09-01T01:45:19;3.45;;;2.58;;
41657;SDS011;27347;57.132;-2.084;2022-09-01T01:47:46;6.70;;;3.15;;
41657;SDS011;27347;57.132;-2.084;2022-09-01T01:50:35;5.55;;;2.78;;
41657;SDS011;27347;57.132;-2.084;2022-09-01T01:53:03;10.80;;;3.95;;
41657;SDS011;27347;57.132;-2.084;2022-09-01T01:55:31;6.13;;;3.20;;
41657;SDS011;27347;57.132;-2.084;2022-09-01T01:57:57;4.93;;;3.08;;
41657;SDS011;27347;57.132;-2.084;2022-09-01T02:00:29;7.13;;;3.45;;
41657;SDS011;27347;57.132;-2.084;2022-09-01T02:02:56;4.97;;;2.90;;
41657;SDS011;27347;57.132;-2.084;2022-09-01T02:05:23;5.70;;;3.90;;
41657;SDS011;27347;57.132;-2.084;2022-09-01T02:07:54;6.63;;;3.97;;
41657;SDS011;27347;57.132;-2.084;2022-09-01T02:10:25;7.28;;;4.00;;
41657;SDS011;27347;57.132;-2.084;2022-09-01T02:12:51;5.97;;;3.85;;
41657;SDS011;27347;57.132;-2.084;2022-09-01T02:15:18;6.47;;;3.58;;
41657;SDS011;27347;57.132;-2.084;2022-09-01T02:17:44;7.07;;;4.10;;
41657;SDS011;27347;57.132;-2.084;2022-09-01T02:20:10;6.65;;;3.63;;
41657;SDS011;27347;57.132;-2.084;2022-09-01T02:22:35;6.75;;;3.70;;
41657;SDS011;27347;57.132;-2.084;2022-09-01T02:25:04;7.80;;;4.15;;
41657;SDS011;27347;57.132;-2.084;2022-09-01T02:27:31;6.80;;;3.58;;
41657;SDS011;27347;57.132;-2.084;2022-09-01T02:29:59;6.45;;;3.25;;
41657;SDS011;27347;57.132;-2.084;2022-09-01T02:32:25;5.43;;;2.88;;
41657;SDS011;27347;57.132;-2.084;2022-09-01T02:34:51;3.72;;;2.65;;
41657;SDS011;27347;57.132;-2.084;2022-09-01T02:37:25;5.07;;;2.95;;
41657;SDS011;27347;57.132;-2.084;2022-09-01T02:39:51;3.63;;;2.45;;
41657;SDS011;27347;57.132;-2.084;2022-09-01T02:42:17;4.05;;;2.85;;
41657;SDS011;27347;57.132;-2.084;2022-09-01T02:44:52;4.22;;;2.80;;
41657;SDS011;27347;57.132;-2.084;2022-09-01T02:47:18;3.95;;;2.30;;
41657;SDS011;27347;57.132;-2.084;2022-09-01T02:49:44;3.78;;;2.70;;
41657;SDS011;27347;57.132;-2.084;2022-09-01T02:52:10;4.13;;;2.80;;
41657;SDS011;27347;57.132;-2.084;2022-09-01T02:54:39;5.47;;;2.72;;
41657;SDS011;27347;57.132;-2.084;2022-09-01T02:57:09;4.85;;;2.58;;
41657;SDS011;27347;57.132;-2.084;2022-09-01T02:59:35;4.60;;;2.97;;
41657;SDS011;27347;57.132;-2.084;2022-09-01T03:02:01;4.22;;;2.30;;
41657;SDS011;27347;57.132;-2.084;2022-09-01T03:04:26;3.95;;;2.75;;
41657;SDS011;27347;57.132;-2.084;2022-09-01T03:06:52;3.22;;;2.60;;
41657;SDS011;27347;57.132;-2.084;2022-09-01T03:09:18;5.68;;;2.85;;
41657;SDS011;27347;57.132;-2.084;2022-09-01T03:11:46;4.97;;;2.60;;
41657;SDS011;27347;57.132;-2.084;2022-09-01T03:14:13;3.70;;;2.45;;
41657;SDS011;27347;57.132;-2.084;2022-09-01T03:16:38;5.60;;;2.92;;
41657;SDS011;27347;57.132;-2.084;2022-09-01T03:19:05;5.20;;;2.75;;
41657;SDS011;27347;57.132;-2.084;2022-09-01T03:21:35;2.90;;;2.17;;
41657;SDS011;27347;57.132;-2.084;2022-09-01T03:24:04;3.15;;;2.65;;
41657;SDS011;27347;57.132;-2.084;2022-09-01T03:26:30;5.22;;;2.85;;
41657;SDS011;27347;57.132;-2.084;2022-09-01T03:28:55;3.35;;;2.58;;
41657;SDS011;27347;57.132;-2.084;2022-09-01T03:31:21;5.30;;;2.75;;
41657;SDS011;27347;57.132;-2.084;2022-09-01T03:33:51;4.60;;;2.72;;
41657;SDS011;27347;57.132;-2.084;2022-09-01T03:36:18;7.15;;;3.92;;
41657;SDS011;27347;57.132;-2.084;2022-09-01T03:38:47;4.85;;;3.03;;
41657;SDS011;27347;57.132;-2.084;2022-09-01T03:41:15;4.05;;;2.63;;
41657;SDS011;27347;57.132;-2.084;2022-09-01T03:43:42;3.58;;;2.63;;
41657;SDS011;27347;57.132;-2.084;2022-09-01T03:46:07;3.53;;;2.53;;
41657;SDS011;27347;57.132;-2.084;2022-09-01T03:48:34;4.40;;;2.80;;
41657;SDS011;27347;57.132;-2.084;2022-09-01T03:51:00;3.97;;;2.50;;
41657;SDS011;27347;57.132;-2.084;2022-09-01T03:53:27;4.10;;;2.53;;
41657;SDS011;27347;57.132;-2.084;2022-09-01T03:55:53;2.83;;;2.28;;
41657;SDS011;27347;57.132;-2.084;2022-09-01T03:58:21;5.45;;;2.67;;
41657;SDS011;27347;57.132;-2.084;2022-09-01T04:00:52;3.90;;;2.45;;
41657;SDS011;27347;57.132;-2.084;2022-09-01T04:03:20;7.20;;;2.67;;
41657;SDS011;27347;57.132;-2.084;2022-09-01T04:05:48;2.88;;;2.22;;
41657;SDS011;27347;57.132;-2.084;2022-09-01T04:08:15;5.38;;;2.75;;
41657;SDS011;27347;57.132;-2.084;2022-09-01T04:10:51;6.07;;;2.45;;
41657;SDS011;27347;57.132;-2.084;2022-09-01T04:13:21;4.43;;;2.33;;
41657;SDS011;27347;57.132;-2.084;2022-09-01T04:15:51;4.00;;;2.78;;
41657;SDS011;27347;57.132;-2.084;2022-09-01T04:18:17;4.38;;;3.17;;
41657;SDS011;27347;57.132;-2.084;2022-09-01T04:20:50;3.85;;;3.03;;
41657;SDS011;27347;57.132;-2.084;2022-09-01T04:25:58;5.47;;;3.20;;
41657;SDS011;27347;57.132;-2.084;2022-09-01T04:28:29;5.32;;;2.92;;
41657;SDS011;27347;57.132;-2.084;2022-09-01T04:31:00;6.28;;;3.50;;
41657;SDS011;27347;57.132;-2.084;2022-09-01T04:33:30;4.55;;;3.30;;
41657;SDS011;27347;57.132;-2.084;2022-09-01T04:36:01;5.78;;;3.25;;
41657;SDS011;27347;57.132;-2.084;2022-09-01T04:38:27;5.88;;;3.00;;
41657;SDS011;27347;57.132;-2.084;2022-09-01T04:40:54;5.13;;;2.42;;
41657;SDS011;27347;57.132;-2.084;2022-09-01T04:43:21;4.55;;;3.13;;
41657;SDS011;27347;57.132;-2.084;2022-09-01T04:45:48;4.57;;;2.53;;
41657;SDS011;27347;57.132;-2.084;2022-09-01T04:48:15;4.60;;;2.38;;
41657;SDS011;27347;57.132;-2.084;2022-09-01T04:50:42;7.35;;;2.90;;
41657;SDS011;27347;57.132;-2.084;2022-09-01T04:53:09;5.22;;;2.63;;
41657;SDS011;27347;57.132;-2.084;2022-09-01T04:55:37;8.68;;;3.70;;
41657;SDS011;27347;57.132;-2.084;2022-09-01T04:58:04;4.28;;;2.65;;
41657;SDS011;27347;57.132;-2.084;2022-09-01T05:00:29;11.50;;;3.55;;
41657;SDS011;27347;57.132;-2.084;2022-09-01T05:02:57;6.53;;;3.05;;
41657;SDS011;27347;57.132;-2.084;2022-09-01T05:05:28;3.85;;;2.55;;
41657;SDS011;27347;57.132;-2.084;2022-09-01T05:08:02;4.75;;;2.95;;
41657;SDS011;27347;57.132;-2.084;2022-09-01T05:10:27;3.38;;;2.67;;
41657;SDS011;27347;57.132;-2.084;2022-09-01T05:12:54;8.73;;;3.38;;
41657;SDS011;27347;57.132;-2.084;2022-09-01T05:15:21;5.72;;;2.80;;
41657;SDS011;27347;57.132;-2.084;2022-09-01T05:17:47;3.60;;;2.88;;
41657;SDS011;27347;57.132;-2.084;2022-09-01T05:20:13;3.33;;;2.50;;
41657;SDS011;27347;57.132;-2.084;2022-09-01T05:22:38;4.03;;;2.35;;
41657;SDS011;27347;57.132;-2.084;2022-09-01T05:25:05;3.83;;;2.72;;
41657;SDS011;27347;57.132;-2.084;2022-09-01T05:27:39;2.83;;;2.33;;
41657;SDS011;27347;57.132;-2.084;2022-09-01T05:30:06;3.50;;;2.47;;
41657;SDS011;27347;57.132;-2.084;2022-09-01T05:32:35;4.38;;;2.70;;
41657;SDS011;27347;57.132;-2.084;2022-09-01T05:35:03;5.53;;;2.70;;
41657;SDS011;27347;57.132;-2.084;2022-09-01T05:37:32;2.88;;;2.47;;
41657;SDS011;27347;57.132;-2.084;2022-09-01T05:40:00;3.15;;;2.40;;
41657;SDS011;27347;57.132;-2.084;2022-09-01T05:42:25;3.65;;;2.28;;
41657;SDS011;27347;57.132;-2.084;2022-09-01T05:44:52;5.50;;;2.42;;
41657;SDS011;27347;57.132;-2.084;2022-09-01T05:47:17;5.97;;;2.80;;
41657;SDS011;27347;57.132;-2.084;2022-09-01T05:49:45;3.72;;;2.70;;
41657;SDS011;27347;57.132;-2.084;2022-09-01T05:52:11;3.95;;;2.85;;
41657;SDS011;27347;57.132;-2.084;2022-09-01T05:54:36;3.15;;;2.58;;
41657;SDS011;27347;57.132;-2.084;2022-09-01T05:57:02;5.40;;;3.15;;
41657;SDS011;27347;57.132;-2.084;2022-09-01T05:59:28;4.20;;;2.92;;
41657;SDS011;27347;57.132;-2.084;2022-09-01T06:01:57;3.30;;;2.35;;
41657;SDS011;27347;57.132;-2.084;2022-09-01T06:04:24;6.32;;;3.60;;
41657;SDS011;27347;57.132;-2.084;2022-09-01T06:06:51;3.08;;;2.50;;
41657;SDS011;27347;57.132;-2.084;2022-09-01T06:09:17;3.30;;;2.60;;
41657;SDS011;27347;57.132;-2.084;2022-09-01T06:11:43;3.22;;;1.90;;
41657;SDS011;27347;57.132;-2.084;2022-09-01T06:14:11;1.90;;;1.75;;
41657;SDS011;27347;57.132;-2.084;2022-09-01T06:16:37;4.13;;;2.10;;
41657;SDS011;27347;57.132;-2.084;2022-09-01T06:19:03;3.00;;;2.17;;
41657;SDS011;27347;57.132;-2.084;2022-09-01T06:21:28;4.38;;;2.38;;
41657;SDS011;27347;57.132;-2.084;2022-09-01T06:23:56;3.13;;;2.22;;
41657;SDS011;27347;57.132;-2.084;2022-09-01T06:26:29;4.30;;;1.85;;
41657;SDS011;27347;57.132;-2.084;2022-09-01T06:28:56;5.00;;;2.67;;
41657;SDS011;27347;57.132;-2.084;2022-09-01T06:31:28;7.00;;;3.42;;
41657;SDS011;27347;57.132;-2.084;2022-09-01T06:33:58;4.13;;;2.70;;
41657;SDS011;27347;57.132;-2.084;2022-09-01T06:36:27;4.47;;;2.75;;
41657;SDS011;27347;57.132;-2.084;2022-09-01T06:38:56;3.65;;;2.80;;
41657;SDS011;27347;57.132;-2.084;2022-09-01T06:41:24;6.20;;;3.00;;
41657;SDS011;27347;57.132;-2.084;2022-09-01T06:43:50;3.83;;;2.45;;
41657;SDS011;27347;57.132;-2.084;2022-09-01T06:46:19;4.03;;;2.70;;
41657;SDS011;27347;57.132;-2.084;2022-09-01T06:48:46;5.63;;;2.58;;
41657;SDS011;27347;57.132;-2.084;2022-09-01T06:51:16;5.65;;;2.55;;
41657;SDS011;27347;57.132;-2.084;2022-09-01T06:53:44;3.25;;;2.60;;
41657;SDS011;27347;57.132;-2.084;2022-09-01T06:56:15;5.38;;;2.85;;
41657;SDS011;27347;57.132;-2.084;2022-09-01T06:58:42;3.65;;;2.70;;
41657;SDS011;27347;57.132;-2.084;2022-09-01T07:01:12;3.47;;;2.20;;
41657;SDS011;27347;57.132;-2.084;2022-09-01T07:03:40;3.35;;;2.53;;
41657;SDS011;27347;57.132;-2.084;2022-09-01T07:06:06;4.70;;;2.45;;
41657;SDS011;27347;57.132;-2.084;2022-09-01T07:08:32;3.65;;;2.60;;
41657;SDS011;27347;57.132;-2.084;2022-09-01T07:11:07;3.35;;;2.17;;
41657;SDS011;27347;57.132;-2.084;2022-09-01T07:13:34;3.15;;;2.75;;
41657;SDS011;27347;57.132;-2.084;2022-09-01T07:16:00;4.45;;;2.60;;
41657;SDS011;27347;57.132;-2.084;2022-09-01T07:18:28;3.58;;;2.55;;
41657;SDS011;27347;57.132;-2.084;2022-09-01T07:20:55;3.85;;;2.25;;
41657;SDS011;27347;57.132;-2.084;2022-09-01T07:23:20;2.90;;;2.05;;
41657;SDS011;27347;57.132;-2.084;2022-09-01T07:25:48;3.20;;;2.47;;
41657;SDS011;27347;57.132;-2.084;2022-09-01T07:28:15;3.97;;;2.60;;
41657;SDS011;27347;57.132;-2.084;2022-09-01T07:30:45;3.67;;;2.53;;
41657;SDS011;27347;57.132;-2.084;2022-09-01T07:33:14;4.65;;;2.30;;
41657;SDS011;27347;57.132;-2.084;2022-09-01T07:35:40;6.50;;;2.72;;
41657;SDS011;27347;57.132;-2.084;2022-09-01T07:38:06;4.70;;;2.47;;
41657;SDS011;27347;57.132;-2.084;2022-09-01T07:40:34;4.47;;;2.78;;
41657;SDS011;27347;57.132;-2.084;2022-09-01T07:43:02;3.38;;;2.80;;
41657;SDS011;27347;57.132;-2.084;2022-09-01T07:45:32;4.00;;;2.72;;
41657;SDS011;27347;57.132;-2.084;2022-09-01T07:48:02;7.93;;;2.85;;
41657;SDS011;27347;57.132;-2.084;2022-09-01T07:50:31;3.10;;;2.38;;
41657;SDS011;27347;57.132;-2.084;2022-09-01T07:53:01;4.05;;;2.42;;
41657;SDS011;27347;57.132;-2.084;2022-09-01T07:55:27;4.53;;;2.67;;
41657;SDS011;27347;57.132;-2.084;2022-09-01T07:57:53;2.45;;;2.17;;
41657;SDS011;27347;57.132;-2.084;2022-09-01T08:00:18;4.97;;;2.10;;
41657;SDS011;27347;57.132;-2.084;2022-09-01T08:02:46;2.63;;;2.20;;
41657;SDS011;27347;57.132;-2.084;2022-09-01T08:05:13;5.93;;;2.72;;
41657;SDS011;27347;57.132;-2.084;2022-09-01T08:07:41;5.47;;;2.40;;
41657;SDS011;27347;57.132;-2.084;2022-09-01T08:10:07;2.75;;;2.47;;
41657;SDS011;27347;57.132;-2.084;2022-09-01T08:12:33;3.85;;;2.63;;
41657;SDS011;27347;57.132;-2.084;2022-09-01T08:15:06;4.00;;;2.20;;
41657;SDS011;27347;57.132;-2.084;2022-09-01T08:17:32;3.42;;;2.30;;
41657;SDS011;27347;57.132;-2.084;2022-09-01T08:19:57;3.75;;;2.47;;
41657;SDS011;27347;57.132;-2.084;2022-09-01T08:22:23;3.90;;;2.30;;
41657;SDS011;27347;57.132;-2.084;2022-09-01T08:24:50;4.45;;;2.78;;
41657;SDS011;27347;57.132;-2.084;2022-09-01T08:27:16;2.33;;;1.85;;
41657;SDS011;27347;57.132;-2.084;2022-09-01T08:29:41;5.50;;;2.25;;
41657;SDS011;27347;57.132;-2.084;2022-09-01T08:32:07;4.97;;;2.60;;
41657;SDS011;27347;57.132;-2.084;2022-09-01T08:34:33;4.32;;;2.20;;
41657;SDS011;27347;57.132;-2.084;2022-09-01T08:36:58;2.42;;;1.77;;
41657;SDS011;27347;57.132;-2.084;2022-09-01T08:39:24;2.42;;;2.05;;
41657;SDS011;27347;57.132;-2.084;2022-09-01T08:44:50;2.42;;;1.90;;
41657;SDS011;27347;57.132;-2.084;2022-09-01T08:47:20;2.88;;;2.20;;
41657;SDS011;27347;57.132;-2.084;2022-09-01T08:49:46;3.33;;;2.05;;
41657;SDS011;27347;57.132;-2.084;2022-09-01T08:54:48;2.63;;;1.85;;
41657;SDS011;27347;57.132;-2.084;2022-09-01T09:00:17;3.55;;;1.80;;
41657;SDS011;27347;57.132;-2.084;2022-09-01T09:08:50;3.10;;;2.20;;
41657;SDS011;27347;57.132;-2.084;2022-09-01T09:16:21;5.80;;;3.05;;
41657;SDS011;27347;57.132;-2.084;2022-09-01T09:18:50;6.10;;;3.47;;
41657;SDS011;27347;57.132;-2.084;2022-09-01T09:23:54;8.00;;;3.17;;
41657;SDS011;27347;57.132;-2.084;2022-09-01T09:26:38;5.40;;;3.22;;
41657;SDS011;27347;57.132;-2.084;2022-09-01T09:29:04;5.57;;;3.38;;
41657;SDS011;27347;57.132;-2.084;2022-09-01T09:31:31;6.97;;;2.97;;
41657;SDS011;27347;57.132;-2.084;2022-09-01T09:33:58;7.72;;;3.40;;
41657;SDS011;27347;57.132;-2.084;2022-09-01T09:36:43;7.25;;;3.47;;
41657;SDS011;27347;57.132;-2.084;2022-09-01T09:39:14;4.78;;;3.30;;
41657;SDS011;27347;57.132;-2.084;2022-09-01T09:41:41;7.55;;;3.05;;
41657;SDS011;27347;57.132;-2.084;2022-09-01T09:46:50;9.98;;;2.92;;
41657;SDS011;27347;57.132;-2.084;2022-09-01T09:52:26;5.65;;;2.97;;
41657;SDS011;27347;57.132;-2.084;2022-09-01T09:54:34;5.20;;;2.58;;
41657;SDS011;27347;57.132;-2.084;2022-09-01T09:59:36;7.22;;;3.08;;
41657;SDS011;27347;57.132;-2.084;2022-09-01T10:05:26;5.03;;;2.40;;
41657;SDS011;27347;57.132;-2.084;2022-09-01T10:07:57;7.82;;;3.55;;
41657;SDS011;27347;57.132;-2.084;2022-09-01T10:10:39;7.72;;;3.05;;
41657;SDS011;27347;57.132;-2.084;2022-09-01T10:13:11;12.07;;;3.80;;
41657;SDS011;27347;57.132;-2.084;2022-09-01T10:15:39;10.23;;;3.75;;
41657;SDS011;27347;57.132;-2.084;2022-09-01T10:18:07;6.88;;;3.45;;
41657;SDS011;27347;57.132;-2.084;2022-09-01T10:20:38;9.73;;;3.83;;
41657;SDS011;27347;57.132;-2.084;2022-09-01T10:23:08;8.05;;;3.65;;
41657;SDS011;27347;57.132;-2.084;2022-09-01T10:25:33;8.35;;;4.15;;
41657;SDS011;27347;57.132;-2.084;2022-09-01T10:28:08;15.25;;;4.22;;
41657;SDS011;27347;57.132;-2.084;2022-09-01T10:30:36;7.05;;;3.78;;
41657;SDS011;27347;57.132;-2.084;2022-09-01T10:33:06;15.05;;;4.55;;
41657;SDS011;27347;57.132;-2.084;2022-09-01T10:35:37;7.93;;;3.50;;
41657;SDS011;27347;57.132;-2.084;2022-09-01T10:38:10;6.68;;;3.70;;
41657;SDS011;27347;57.132;-2.084;2022-09-01T10:40:49;11.38;;;4.30;;
41657;SDS011;27347;57.132;-2.084;2022-09-01T10:48:47;10.32;;;3.50;;
41657;SDS011;27347;57.132;-2.084;2022-09-01T10:53:40;5.97;;;3.30;;
41657;SDS011;27347;57.132;-2.084;2022-09-01T10:56:12;7.13;;;3.10;;
41657;SDS011;27347;57.132;-2.084;2022-09-01T10:59:00;4.82;;;3.13;;
41657;SDS011;27347;57.132;-2.084;2022-09-01T11:04:05;3.85;;;2.75;;
41657;SDS011;27347;57.132;-2.084;2022-09-01T11:10:05;7.32;;;3.97;;
41657;SDS011;27347;57.132;-2.084;2022-09-01T11:14:52;6.28;;;3.65;;
41657;SDS011;27347;57.132;-2.084;2022-09-01T11:17:23;9.85;;;4.03;;
41657;SDS011;27347;57.132;-2.084;2022-09-01T11:35:46;12.40;;;3.72;;
41657;SDS011;27347;57.132;-2.084;2022-09-01T11:38:13;7.80;;;3.67;;
41657;SDS011;27347;57.132;-2.084;2022-09-01T11:40:39;12.85;;;3.95;;
41657;SDS011;27347;57.132;-2.084;2022-09-01T11:43:10;5.97;;;3.28;;
41657;SDS011;27347;57.132;-2.084;2022-09-01T11:51:10;6.35;;;2.97;;
41657;SDS011;27347;57.132;-2.084;2022-09-01T11:53:36;4.55;;;3.17;;
41657;SDS011;27347;57.132;-2.084;2022-09-01T11:56:18;4.55;;;2.78;;
41657;SDS011;27347;57.132;-2.084;2022-09-01T11:58:48;5.35;;;3.28;;
41657;SDS011;27347;57.132;-2.084;2022-09-01T12:03:54;4.90;;;2.55;;
41657;SDS011;27347;57.132;-2.084;2022-09-01T12:06:24;8.13;;;3.20;;
41657;SDS011;27347;57.132;-2.084;2022-09-01T12:08:57;5.40;;;3.15;;
41657;SDS011;27347;57.132;-2.084;2022-09-01T12:11:27;6.82;;;3.30;;
41657;SDS011;27347;57.132;-2.084;2022-09-01T12:13:59;6.28;;;2.63;;
41657;SDS011;27347;57.132;-2.084;2022-09-01T12:16:26;8.90;;;3.08;;
41657;SDS011;27347;57.132;-2.084;2022-09-01T12:18:53;6.13;;;3.08;;
41657;SDS011;27347;57.132;-2.084;2022-09-01T12:21:21;5.97;;;2.63;;
41657;SDS011;27347;57.132;-2.084;2022-09-01T12:23:48;9.80;;;2.92;;
41657;SDS011;27347;57.132;-2.084;2022-09-01T12:26:19;4.47;;;2.70;;
41657;SDS011;27347;57.132;-2.084;2022-09-01T12:28:48;5.50;;;3.08;;
41657;SDS011;27347;57.132;-2.084;2022-09-01T12:31:17;6.22;;;3.08;;
41657;SDS011;27347;57.132;-2.084;2022-09-01T12:33:45;5.63;;;3.30;;
41657;SDS011;27347;57.132;-2.084;2022-09-01T12:36:31;5.65;;;2.65;;
41657;SDS011;27347;57.132;-2.084;2022-09-01T12:41:44;5.78;;;2.78;;
41657;SDS011;27347;57.132;-2.084;2022-09-01T12:47:03;6.78;;;2.70;;
41657;SDS011;27347;57.132;-2.084;2022-09-01T12:52:11;12.45;;;3.38;;
41657;SDS011;27347;57.132;-2.084;2022-09-01T12:57:38;7.72;;;3.00;;
41657;SDS011;27347;57.132;-2.084;2022-09-01T13:02:36;14.70;;;3.63;;
41657;SDS011;27347;57.132;-2.084;2022-09-01T13:05:23;6.65;;;3.45;;
41657;SDS011;27347;57.132;-2.084;2022-09-01T13:07:51;7.22;;;2.97;;
41657;SDS011;27347;57.132;-2.084;2022-09-01T13:10:18;12.63;;;3.72;;
41657;SDS011;27347;57.132;-2.084;2022-09-01T13:12:44;6.43;;;2.72;;
41657;SDS011;27347;57.132;-2.084;2022-09-01T13:15:10;6.43;;;2.90;;
41657;SDS011;27347;57.132;-2.084;2022-09-01T13:17:36;7.00;;;2.92;;
41657;SDS011;27347;57.132;-2.084;2022-09-01T13:20:05;6.90;;;2.92;;
41657;SDS011;27347;57.132;-2.084;2022-09-01T13:22:32;6.85;;;2.80;;
41657;SDS011;27347;57.132;-2.084;2022-09-01T13:24:58;5.28;;;2.70;;
41657;SDS011;27347;57.132;-2.084;2022-09-01T13:27:24;9.20;;;2.70;;
41657;SDS011;27347;57.132;-2.084;2022-09-01T13:29:49;4.10;;;2.55;;
41657;SDS011;27347;57.132;-2.084;2022-09-01T13:32:16;4.78;;;2.88;;
41657;SDS011;27347;57.132;-2.084;2022-09-01T13:34:42;5.38;;;3.03;;
41657;SDS011;27347;57.132;-2.084;2022-09-01T13:37:08;6.20;;;2.75;;
41657;SDS011;27347;57.132;-2.084;2022-09-01T13:39:33;4.22;;;2.78;;
41657;SDS011;27347;57.132;-2.084;2022-09-01T13:41:59;7.60;;;2.80;;
41657;SDS011;27347;57.132;-2.084;2022-09-01T13:44:24;5.38;;;2.80;;
41657;SDS011;27347;57.132;-2.084;2022-09-01T13:46:50;11.20;;;2.80;;
41657;SDS011;27347;57.132;-2.084;2022-09-01T13:49:15;8.52;;;2.40;;
41657;SDS011;27347;57.132;-2.084;2022-09-01T13:51:40;9.20;;;3.25;;
41657;SDS011;27347;57.132;-2.084;2022-09-01T13:54:06;7.95;;;2.88;;
41657;SDS011;27347;57.132;-2.084;2022-09-01T13:56:31;7.43;;;3.03;;
41657;SDS011;27347;57.132;-2.084;2022-09-01T13:58:57;6.43;;;2.63;;
41657;SDS011;27347;57.132;-2.084;2022-09-01T14:01:22;10.18;;;2.85;;
41657;SDS011;27347;57.132;-2.084;2022-09-01T14:03:48;4.07;;;2.40;;
41657;SDS011;27347;57.132;-2.084;2022-09-01T14:06:14;5.80;;;2.47;;
41657;SDS011;27347;57.132;-2.084;2022-09-01T14:08:40;7.07;;;2.80;;
41657;SDS011;27347;57.132;-2.084;2022-09-01T14:11:05;5.88;;;2.50;;
41657;SDS011;27347;57.132;-2.084;2022-09-01T14:13:32;4.65;;;2.17;;
41657;SDS011;27347;57.132;-2.084;2022-09-01T14:15:58;3.80;;;1.98;;
41657;SDS011;27347;57.132;-2.084;2022-09-01T14:18:24;8.93;;;2.40;;
41657;SDS011;27347;57.132;-2.084;2022-09-01T14:21:01;6.93;;;2.38;;
41657;SDS011;27347;57.132;-2.084;2022-09-01T14:23:26;5.07;;;1.95;;
41657;SDS011;27347;57.132;-2.084;2022-09-01T14:25:52;5.10;;;1.88;;
41657;SDS011;27347;57.132;-2.084;2022-09-01T14:28:18;5.47;;;2.58;;
41657;SDS011;27347;57.132;-2.084;2022-09-01T14:30:45;5.00;;;2.03;;
41657;SDS011;27347;57.132;-2.084;2022-09-01T14:33:11;7.22;;;2.33;;
41657;SDS011;27347;57.132;-2.084;2022-09-01T14:35:38;6.18;;;2.13;;
41657;SDS011;27347;57.132;-2.084;2022-09-01T14:38:04;8.57;;;2.55;;
41657;SDS011;27347;57.132;-2.084;2022-09-01T14:40:32;4.70;;;1.83;;
41657;SDS011;27347;57.132;-2.084;2022-09-01T14:43:01;4.38;;;1.80;;
41657;SDS011;27347;57.132;-2.084;2022-09-01T14:45:27;5.68;;;2.50;;
41657;SDS011;27347;57.132;-2.084;2022-09-01T14:47:54;3.50;;;1.63;;
41657;SDS011;27347;57.132;-2.084;2022-09-01T14:50:23;6.60;;;2.03;;
41657;SDS011;27347;57.132;-2.084;2022-09-01T14:52:50;7.82;;;2.13;;
41657;SDS011;27347;57.132;-2.084;2022-09-01T14:55:17;4.18;;;1.52;;
41657;SDS011;27347;57.132;-2.084;2022-09-01T14:57:43;2.03;;;1.40;;
41657;SDS011;27347;57.132;-2.084;2022-09-01T15:00:09;4.25;;;1.67;;
41657;SDS011;27347;57.132;-2.084;2022-09-01T15:02:36;4.50;;;1.70;;
41657;SDS011;27347;57.132;-2.084;2022-09-01T15:05:02;3.78;;;1.42;;
41657;SDS011;27347;57.132;-2.084;2022-09-01T15:07:28;6.18;;;1.80;;
41657;SDS011;27347;57.132;-2.084;2022-09-01T15:09:54;4.82;;;1.52;;
41657;SDS011;27347;57.132;-2.084;2022-09-01T15:12:19;4.57;;;1.60;;
41657;SDS011;27347;57.132;-2.084;2022-09-01T15:14:44;2.97;;;1.63;;
41657;SDS011;27347;57.132;-2.084;2022-09-01T15:17:10;2.35;;;1.15;;
41657;SDS011;27347;57.132;-2.084;2022-09-01T15:19:36;3.45;;;1.50;;
41657;SDS011;27347;57.132;-2.084;2022-09-01T15:22:01;3.15;;;1.50;;
41657;SDS011;27347;57.132;-2.084;2022-09-01T15:24:27;3.97;;;1.45;;
41657;SDS011;27347;57.132;-2.084;2022-09-01T15:26:53;2.47;;;1.40;;
41657;SDS011;27347;57.132;-2.084;2022-09-01T15:29:19;2.58;;;1.60;;
41657;SDS011;27347;57.132;-2.084;2022-09-01T15:31:44;4.00;;;1.70;;
41657;SDS011;27347;57.132;-2.084;2022-09-01T15:34:10;4.28;;;1.40;;
41657;SDS011;27347;57.132;-2.084;2022-09-01T15:36:38;3.53;;;1.70;;
41657;SDS011;27347;57.132;-2.084;2022-09-01T15:39:04;3.30;;;1.80;;
41657;SDS011;27347;57.132;-2.084;2022-09-01T15:41:31;3.85;;;1.90;;
41657;SDS011;27347;57.132;-2.084;2022-09-01T15:43:57;3.42;;;1.42;;
41657;SDS011;27347;57.132;-2.084;2022-09-01T15:46:23;3.08;;;1.65;;
41657;SDS011;27347;57.132;-2.084;2022-09-01T15:49:00;4.40;;;1.85;;
41657;SDS011;27347;57.132;-2.084;2022-09-01T15:51:37;3.72;;;1.77;;
41657;SDS011;27347;57.132;-2.084;2022-09-01T15:54:11;5.13;;;1.60;;
41657;SDS011;27347;57.132;-2.084;2022-09-01T15:56:37;3.05;;;1.55;;
41657;SDS011;27347;57.132;-2.084;2022-09-01T15:59:04;3.97;;;1.60;;
41657;SDS011;27347;57.132;-2.084;2022-09-01T16:01:34;4.03;;;1.60;;
41657;SDS011;27347;57.132;-2.084;2022-09-01T16:04:03;4.00;;;1.77;;
41657;SDS011;27347;57.132;-2.084;2022-09-01T16:06:29;3.58;;;1.90;;
41657;SDS011;27347;57.132;-2.084;2022-09-01T16:08:55;3.53;;;1.67;;
41657;SDS011;27347;57.132;-2.084;2022-09-01T16:11:21;3.35;;;2.05;;
41657;SDS011;27347;57.132;-2.084;2022-09-01T16:13:47;5.53;;;2.30;;